Time;durP1;ratioP1;P1;durP2;ratioP2;P2;SDS_P1;SDS_P2;PMS_P1;PMS_P2;Temp;Humidity;BMP_temperature;BMP_pressure;BME280_temperature;BME280_humidity;BME280_pressure;Samples;Min_cycle;Max_cycle;Signal;HPM_P1;HPM_P2
2023/07/24 00:02:42;;;;;;;2.60;1.47;;;;;;;23.16;63.46;100402.34;10338314;28;96600;-79
2023/07/24 00:07:47;;;;;;;2.83;1.40;;;;;;;23.14;63.80;100390.91;10338209;28;96758;-78
2023/07/24 00:12:50;;;;;;;3.10;1.40;;;;;;;23.09;63.96;100387.78;10319160;28;96798;-79
2023/07/24 00:17:53;;;;;;;2.63;1.33;;;;;;;23.17;64.01;100390.63;10334774;28;96676;-79
2023/07/24 00:22:58;;;;;;;2.80;1.40;;;;;;;23.15;63.93;100380.97;10337840;28;98081;-79
2023/07/24 00:28:02;;;;;;;1.90;1.20;;;;;;;23.16;64.12;100382.69;10335565;28;96677;-79
2023/07/24 00:33:05;;;;;;;2.47;1.30;;;;;;;23.04;64.58;100373.91;10336668;28;96844;-79
2023/07/24 00:38:10;;;;;;;2.47;1.63;;;;;;;22.87;65.03;100371.03;10336985;28;97131;-79
2023/07/24 00:43:13;;;;;;;1.70;1.33;;;;;;;22.85;65.14;100357.75;10336886;28;96906;-79
2023/07/24 00:48:17;;;;;;;2.75;1.38;;;;;;;22.52;66.46;100358.00;10335940;28;97825;-78
2023/07/24 00:53:22;;;;;;;2.10;1.23;;;;;;;22.74;65.76;100351.56;10336645;28;96812;-79
2023/07/24 00:58:25;;;;;;;2.30;1.58;;;;;;;22.63;66.10;100354.38;10336493;28;96720;-79
2023/07/24 01:03:34;;;;;;;3.17;1.40;;;;;;;22.51;67.43;100350.91;10337186;28;96846;-78
2023/07/24 01:08:38;;;;;;;1.90;1.20;;;;;;;22.47;67.44;100354.84;10335503;28;97809;-79
2023/07/24 01:13:49;;;;;;;2.90;1.50;;;;;;;22.34;68.24;100354.22;10309746;28;96785;-79
2023/07/24 01:18:53;;;;;;;3.05;1.70;;;;;;;22.35;68.60;100356.75;10293489;28;97685;-79
2023/07/24 01:24:04;;;;;;;2.65;1.27;;;;;;;22.20;69.73;100359.91;10317140;28;97909;-80
2023/07/24 01:29:09;;;;;;;1.77;1.00;;;;;;;22.18;69.68;100353.81;10335780;28;96744;-81
2023/07/24 01:34:29;;;;;;;2.75;1.52;;;;;;;22.23;70.08;100359.66;10335576;28;96718;-81
2023/07/24 01:39:34;;;;;;;1.77;1.33;;;;;;;22.36;69.73;100350.44;10334350;28;96722;-81
2023/07/24 01:44:56;;;;;;;3.08;1.30;;;;;;;22.08;71.30;100350.22;10332744;28;96928;-80
2023/07/24 01:50:00;;;;;;;2.33;1.13;;;;;;;22.07;71.49;100360.09;10334819;28;96674;-80
2023/07/24 01:55:03;;;;;;;1.73;1.00;;;;;;;21.92;72.26;100345.28;10335759;28;97037;-79
2023/07/24 02:00:09;;;;;;;2.00;1.20;;;;;;;22.05;71.66;100347.81;10334450;28;96864;-81
2023/07/24 02:05:13;;;;;;;2.45;1.70;;;;;;;22.10;71.79;100337.56;10335001;28;96562;-80
2023/07/24 02:10:17;;;;;;;2.67;1.40;;;;;;;22.17;71.77;100336.06;10333716;28;97707;-80
2023/07/24 02:15:23;;;;;;;2.10;1.20;;;;;;;22.09;72.25;100334.00;10295226;28;97052;-80
2023/07/24 02:20:26;;;;;;;2.55;1.40;;;;;;;22.09;72.60;100330.50;10292429;28;97023;-80
2023/07/24 02:25:29;;;;;;;3.75;1.60;;;;;;;22.19;72.54;100326.91;10293273;28;96804;-80
2023/07/24 02:30:38;;;;;;;3.65;1.40;;;;;;;22.05;72.97;100324.56;10293680;28;96732;-81
2023/07/24 02:35:43;;;;;;;2.38;1.40;;;;;;;22.10;72.94;100324.16;10293266;28;96761;-81
2023/07/24 02:40:47;;;;;;;3.28;1.58;;;;;;;22.10;73.25;100319.66;10293192;28;96817;-81
2023/07/24 02:45:53;;;;;;;2.60;1.67;;;;;;;22.11;73.44;100313.28;10293467;28;96677;-81
2023/07/24 02:50:57;;;;;;;2.45;1.38;;;;;;;22.08;73.34;100313.56;10258422;28;97088;-80
2023/07/24 02:56:18;;;;;;;1.98;1.27;;;;;;;22.11;73.40;100312.44;10256871;28;96868;-80
2023/07/24 03:01:23;;;;;;;2.38;1.45;;;;;;;22.15;73.31;100312.06;10257710;28;97255;-80
2023/07/24 03:06:27;;;;;;;1.77;1.13;;;;;;;22.19;73.43;100310.81;10312091;28;97372;-80
2023/07/24 03:11:30;;;;;;;;;;;;;;;22.11;74.52;100307.94;10332057;28;96682;-80
2023/07/24 03:16:35;;;;;;;2.35;1.38;;;;;;;22.16;73.63;100302.19;10298519;28;96765;-80
2023/07/24 03:21:39;;;;;;;2.03;1.38;;;;;;;22.10;73.98;100302.72;10299300;28;96915;-80
2023/07/24 03:26:43;;;;;;;2.45;1.30;;;;;;;22.10;73.70;100292.00;10298134;28;96696;-80
2023/07/24 03:31:50;;;;;;;2.75;1.45;;;;;;;22.08;73.85;100294.81;10298173;28;96691;-80
2023/07/24 03:36:54;;;;;;;3.83;1.48;;;;;;;22.18;73.59;100295.72;10298785;28;96640;-80
2023/07/24 03:41:58;;;;;;;2.65;1.38;;;;;;;22.16;73.93;100296.84;10337479;28;96870;-80
2023/07/24 03:47:03;;;;;;;;;;;;;;;22.11;75.19;100305.25;10338991;28;96652;-80
2023/07/24 03:52:07;;;;;;;2.65;1.48;;;;;;;22.11;74.12;100291.84;10338032;28;96648;-80
2023/07/24 03:57:10;;;;;;;3.83;1.40;;;;;;;22.11;74.04;100296.34;10337553;28;96807;-80
2023/07/24 04:02:15;;;;;;;2.47;1.45;;;;;;;22.02;74.33;100291.81;10338231;28;96620;-80
2023/07/24 04:07:20;;;;;;;2.38;1.58;;;;;;;22.00;74.23;100310.72;10338558;28;96765;-80
2023/07/24 04:12:24;;;;;;;2.75;1.63;;;;;;;22.00;74.23;100299.13;10322625;28;96805;-80
2023/07/24 04:17:29;;;;;;;1.67;1.25;;;;;;;22.06;74.40;100307.47;10296357;28;97051;-80
2023/07/24 04:22:33;;;;;;;1.90;1.35;;;;;;;22.12;74.30;100309.66;10297033;28;97077;-80
2023/07/24 04:27:38;;;;;;;2.95;1.30;;;;;;;22.09;74.55;100303.72;10297338;28;97882;-80
2023/07/24 04:32:45;;;;;;;2.10;1.40;;;;;;;22.09;74.22;100307.22;10296813;28;96675;-80
2023/07/24 04:37:51;;;;;;;2.05;1.45;;;;;;;22.02;74.21;100316.75;10296423;28;97412;-80
2023/07/24 04:42:55;;;;;;;3.17;1.13;;;;;;;22.17;74.20;100303.88;10295143;28;96724;-80
2023/07/24 04:48:00;;;;;;;;;;;;;;;22.15;74.83;100306.69;10286492;22;97272;-80
2023/07/24 04:53:03;;;;;;;2.07;1.30;;;;;;;22.06;74.25;100306.63;10244863;28;97425;-80
2023/07/24 04:58:06;;;;;;;3.05;1.65;;;;;;;22.02;74.19;100295.31;10254445;28;97298;-80
2023/07/24 05:03:11;;;;;;;2.60;1.55;;;;;;;22.06;74.16;100298.59;10255408;28;96797;-80
2023/07/24 05:08:15;;;;;;;3.53;1.65;;;;;;;22.08;74.27;100304.66;10254618;28;96590;-80
2023/07/24 05:13:18;;;;;;;1.58;1.25;;;;;;;22.11;74.16;100315.13;10254457;28;97782;-80
2023/07/24 05:18:27;;;;;;;1.85;1.30;;;;;;;22.20;73.85;100304.47;10254802;28;96791;-80
2023/07/24 05:23:32;;;;;;;2.33;1.60;;;;;;;22.19;73.91;100302.78;10288969;28;97235;-80
2023/07/24 05:28:36;;;;;;;2.38;1.60;;;;;;;22.11;74.30;100301.72;10294494;28;96630;-80
2023/07/24 05:33:42;;;;;;;;;;;;;;;22.13;74.99;100308.66;10294368;28;97066;-80
2023/07/24 05:38:47;;;;;;;2.05;1.45;;;;;;;22.14;74.07;100309.50;10293841;28;96645;-80
2023/07/24 05:43:51;;;;;;;3.97;1.58;;;;;;;22.08;74.15;100316.25;10279937;28;96669;-80
2023/07/24 05:49:00;;;;;;;2.47;1.50;;;;;;;22.09;74.43;100314.44;10253034;28;96761;-80
2023/07/24 05:54:04;;;;;;;1.88;1.27;;;;;;;21.90;75.16;100312.41;10254637;28;96740;-81
2023/07/24 05:59:07;;;;;;;2.95;1.23;;;;;;;21.87;75.10;100317.19;10253286;28;96779;-82
2023/07/24 06:04:12;;;;;;;2.33;1.30;;;;;;;21.82;74.89;100311.38;10253527;28;97027;-82
2023/07/24 06:09:16;;;;;;;1.55;1.15;;;;;;;21.86;75.20;100310.13;10253829;28;96734;-82
2023/07/24 06:14:23;;;;;;;3.33;1.80;;;;;;;21.77;75.71;100327.84;10253806;28;97186;-82
2023/07/24 06:19:29;;;;;;;2.40;1.52;;;;;;;21.76;75.88;100327.97;10252561;28;97587;-81
2023/07/24 06:24:33;;;;;;;2.92;1.58;;;;;;;21.77;75.69;100327.84;10251928;28;96788;-80
2023/07/24 06:29:37;;;;;;;2.28;1.30;;;;;;;21.63;76.04;100335.34;10260168;28;97068;-80
2023/07/24 06:34:43;;;;;;;2.20;1.40;;;;;;;21.63;76.01;100340.69;10259624;28;96898;-80
2023/07/24 06:39:47;;;;;;;2.53;1.50;;;;;;;21.52;76.34;100349.63;10259550;28;96867;-80
2023/07/24 06:44:51;;;;;;;2.03;1.23;;;;;;;21.59;76.00;100352.66;10243840;28;96772;-80
2023/07/24 06:49:55;;;;;;;2.03;1.40;;;;;;;21.70;75.88;100356.13;10258769;28;97644;-80
2023/07/24 06:55:16;;;;;;;2.05;1.30;;;;;;;21.75;75.84;100355.72;10252681;28;96715;-81
2023/07/24 07:00:19;;;;;;;2.38;1.30;;;;;;;21.87;75.19;100355.56;10260074;28;97701;-81
2023/07/24 07:05:24;;;;;;;2.20;1.30;;;;;;;21.95;74.99;100362.97;10259096;28;96839;-82
2023/07/24 07:10:28;;;;;;;3.05;1.88;;;;;;;21.65;76.88;100368.19;10258467;28;97618;-81
2023/07/24 07:15:31;;;;;;;3.37;1.70;;;;;;;21.69;76.91;100378.56;10257303;28;96701;-81
2023/07/24 07:20:36;;;;;;;2.60;1.50;;;;;;;21.62;77.13;100388.06;10258763;28;96613;-81
2023/07/24 07:25:40;;;;;;;2.78;1.77;;;;;;;21.70;76.59;100388.28;10257769;28;96725;-81
2023/07/24 07:30:43;;;;;;;3.30;1.73;;;;;;;21.75;76.49;100390.56;10257591;28;97008;-81
2023/07/24 07:35:49;;;;;;;2.85;1.60;;;;;;;21.80;76.40;100391.03;10257669;28;96635;-81
2023/07/24 07:40:52;;;;;;;4.60;1.73;;;;;;;21.83;76.34;100399.66;10257465;28;96770;-81
2023/07/24 07:45:56;;;;;;;2.33;1.27;;;;;;;21.77;76.09;100413.56;10257261;28;97200;-81
2023/07/24 07:51:01;;;;;;;2.50;1.33;;;;;;;21.64;76.02;100415.56;10258007;28;96755;-80
2023/07/24 07:56:05;;;;;;;1.83;1.02;;;;;;;21.59;76.32;100431.16;10288468;28;96987;-80
2023/07/24 08:01:09;;;;;;;2.05;1.27;;;;;;;21.68;75.94;100442.94;10297487;28;97003;-80
2023/07/24 08:06:31;;;;;;;1.80;1.27;;;;;;;21.55;75.60;100445.78;10289757;28;97322;-80
2023/07/24 08:11:35;;;;;;;2.03;1.23;;;;;;;21.56;75.60;100454.66;10296047;28;96612;-80
2023/07/24 08:16:38;;;;;;;2.30;1.30;;;;;;;21.52;75.22;100454.06;10296678;28;96783;-80
2023/07/24 08:21:43;;;;;;;2.63;1.47;;;;;;;21.52;74.54;100457.59;10296725;28;96755;-80
2023/07/24 08:26:46;;;;;;;2.70;1.40;;;;;;;21.57;74.51;100461.72;10295593;28;97769;-80
2023/07/24 08:31:49;;;;;;;3.13;1.73;;;;;;;21.78;73.91;100468.84;10296478;28;96827;-80
2023/07/24 08:36:54;;;;;;;1.93;1.50;;;;;;;21.81;73.72;100478.47;10296056;28;96686;-80
2023/07/24 08:41:58;;;;;;;2.88;1.10;;;;;;;21.84;73.23;100481.75;10296697;28;96584;-80
2023/07/24 08:47:02;;;;;;;5.47;2.80;;;;;;;21.77;73.24;100479.69;10285809;28;96878;-80
2023/07/24 08:52:26;;;;;;;5.15;1.92;;;;;;;21.61;72.89;100487.25;10250237;28;96761;-80
2023/07/24 08:57:38;;;;;;;2.53;1.50;;;;;;;21.65;73.08;100486.91;10254052;28;96669;-80
2023/07/24 09:02:43;;;;;;;3.15;1.40;;;;;;;21.67;72.54;100489.47;10275392;28;98505;-79
2023/07/24 09:07:50;;;;;;;2.25;1.60;;;;;;;21.84;71.70;100505.88;10295031;28;96578;-79
2023/07/24 09:12:54;;;;;;;3.78;1.88;;;;;;;21.95;71.30;100507.66;10295336;28;97620;-79
2023/07/24 09:18:12;;;;;;;3.17;1.88;;;;;;;22.19;70.53;100505.66;10294124;28;97224;-79
2023/07/24 09:23:27;;;;;;;3.90;2.30;;;;;;;22.48;69.75;100504.91;10294758;28;97170;-79
2023/07/24 09:28:31;;;;;;;3.20;1.75;;;;;;;22.67;69.13;100498.84;10295009;28;96692;-79
2023/07/24 09:33:39;;;;;;;3.30;1.30;;;;;;;22.79;68.51;100496.94;10295359;28;96785;-79
2023/07/24 09:38:44;;;;;;;2.53;1.60;;;;;;;23.32;67.64;100485.91;10293388;28;96891;-79
2023/07/24 09:43:59;;;;;;;1.75;1.13;;;;;;;23.43;65.70;100496.56;10280289;28;96560;-80
2023/07/24 09:49:08;;;;;;;1.60;1.10;;;;;;;23.86;65.21;100485.53;10251962;28;97414;-79
2023/07/24 09:54:20;;;;;;;3.33;1.40;;;;;;;23.81;64.76;100485.09;10277439;28;97203;-79
2023/07/24 09:59:27;;;;;;;2.75;1.20;;;;;;;24.13;63.76;100492.91;10295242;28;96805;-80
2023/07/24 10:04:33;;;;;;;1.67;1.30;;;;;;;24.09;63.13;100495.03;10300853;28;96680;-80
2023/07/24 10:09:39;;;;;;;2.80;1.40;;;;;;;23.79;62.91;100500.50;10300142;28;97129;-79
2023/07/24 10:14:45;;;;;;;2.15;1.27;;;;;;;23.36;63.69;100494.56;10300753;28;97182;-79
2023/07/24 10:19:49;;;;;;;2.25;1.40;;;;;;;23.72;63.23;100498.53;10301026;28;96693;-79
2023/07/24 10:24:56;;;;;;;3.22;1.70;;;;;;;23.87;62.14;100498.00;10301461;28;96742;-79
2023/07/24 10:30:04;;;;;;;2.08;1.40;;;;;;;24.76;60.40;100493.19;10299412;28;97234;-79
2023/07/24 10:35:39;;;;;;;2.13;1.23;;;;;;;25.18;59.66;100495.50;10299542;28;97467;-79
2023/07/24 10:40:48;;;;;;;3.33;1.50;;;;;;;25.13;59.51;100495.09;10299078;28;97509;-79
2023/07/24 10:45:55;;;;;;;3.35;1.52;;;;;;;24.92;59.03;100486.34;10268992;28;96662;-80
2023/07/24 10:50:58;;;;;;;3.38;1.90;;;;;;;25.29;57.25;100488.09;10259471;28;96830;-78
2023/07/24 10:56:08;;;;;;;2.25;1.45;;;;;;;25.48;55.99;100497.94;10259081;28;97614;-79
2023/07/24 11:01:11;;;;;;;2.63;1.50;;;;;;;25.54;55.92;100486.53;10259221;28;96768;-79
2023/07/24 11:06:15;;;;;;;;;;;;;;;25.53;54.53;100485.72;10259265;28;96778;-79
2023/07/24 11:11:20;;;;;;;3.00;1.50;;;;;;;25.51;55.14;100479.63;10257982;28;97646;-80
2023/07/24 11:16:24;;;;;;;2.50;1.60;;;;;;;26.31;53.98;100471.56;10259619;28;96676;-80
2023/07/24 11:21:29;;;;;;;2.17;1.45;;;;;;;25.91;53.92;100473.84;10258854;28;96573;-80
2023/07/24 11:26:37;;;;;;;4.22;1.75;;;;;;;25.58;53.55;100466.38;10258335;28;97561;-80
2023/07/24 11:31:45;;;;;;;3.35;1.60;;;;;;;26.04;53.44;100463.53;10256704;28;96707;-80
2023/07/24 11:36:52;;;;;;;4.18;1.90;;;;;;;25.77;53.29;100468.97;10258201;28;96616;-79
2023/07/24 11:42:05;;;;;;;4.68;2.15;;;;;;;25.11;53.01;100472.84;10257845;28;97522;-80
2023/07/24 11:47:27;;;;;;;2.50;1.63;;;;;;;24.96;54.39;100487.75;10254720;28;96858;-79
2023/07/24 11:52:40;;;;;;;2.97;1.88;;;;;;;24.78;53.32;100488.50;10256929;28;96843;-80
2023/07/24 11:57:57;;;;;;;3.13;1.97;;;;;;;25.04;53.43;100486.06;10257235;28;97568;-80
2023/07/24 12:03:04;;;;;;;2.95;1.77;;;;;;;25.32;52.50;100485.09;10256906;28;96845;-79
2023/07/24 12:08:09;;;;;;;2.70;1.73;;;;;;;25.73;51.73;100483.75;10258361;28;97764;-80
2023/07/24 12:13:32;;;;;;;3.83;1.90;;;;;;;26.25;49.94;100464.06;10255764;28;96612;-80
2023/07/24 12:18:35;;;;;;;4.32;2.13;;;;;;;25.99;49.61;100467.72;10256009;28;97268;-80
2023/07/24 12:23:39;;;;;;;3.05;1.77;;;;;;;26.44;48.76;100463.06;10255275;28;96649;-80
2023/07/24 12:28:44;;;;;;;2.67;1.83;;;;;;;26.44;48.62;100469.31;10256319;28;96778;-79
2023/07/24 12:33:47;;;;;;;3.47;2.15;;;;;;;26.01;49.12;100476.47;10255791;28;96699;-80
2023/07/24 12:38:50;;;;;;;3.10;2.00;;;;;;;25.56;49.50;100465.69;10255656;28;96606;-79
2023/07/24 12:44:12;;;;;;;3.72;1.73;;;;;;;25.53;49.04;100469.53;10232751;28;96688;-80
2023/07/24 12:49:16;;;;;;;3.30;2.20;;;;;;;26.03;47.87;100469.06;10214225;28;96738;-80
2023/07/24 12:54:39;;;;;;;3.28;1.77;;;;;;;26.60;47.32;100466.75;10213443;28;96770;-79
2023/07/24 13:00:04;;;;;;;3.83;2.30;;;;;;;26.34;47.06;100452.34;10231927;28;96718;-80
2023/07/24 13:05:26;;;;;;;5.47;2.00;;;;;;;26.77;46.21;100449.66;10248557;28;96871;-79
2023/07/24 13:10:29;;;;;;;3.80;2.05;;;;;;;26.47;46.85;100447.41;10254868;28;97701;-80
2023/07/24 13:15:34;;;;;;;4.10;2.03;;;;;;;25.92;47.55;100445.88;10254109;28;97096;-80
2023/07/24 13:20:55;;;;;;;5.65;2.25;;;;;;;26.01;48.07;100446.81;10252212;28;97349;-80
2023/07/24 13:25:58;;;;;;;4.67;2.10;;;;;;;26.46;46.76;100436.78;10254311;28;96747;-80
2023/07/24 13:31:15;;;;;;;4.72;1.77;;;;;;;26.85;46.21;100429.97;10253860;28;96733;-80
2023/07/24 13:36:20;;;;;;;4.20;1.92;;;;;;;26.35;47.06;100437.00;10253996;28;96799;-79
2023/07/24 13:41:23;;;;;;;;;;;;;;;26.05;47.01;100437.41;10254250;28;96549;-80
2023/07/24 13:46:27;;;;;;;3.47;1.95;;;;;;;25.97;47.81;100418.47;10253438;28;96915;-80
2023/07/24 13:51:31;;;;;;;2.85;1.63;;;;;;;26.31;47.16;100422.97;10254423;28;97355;-80
2023/07/24 13:56:35;;;;;;;;;;;;;;;26.15;46.21;100422.84;10253898;28;97492;-80
2023/07/24 14:01:40;;;;;;;3.88;1.98;;;;;;;25.81;47.64;100417.28;10253775;28;96717;-80
2023/07/24 14:07:01;;;;;;;5.07;2.33;;;;;;;25.54;47.62;100424.53;10250896;28;96672;-79
2023/07/24 14:12:04;;;;;;;2.37;1.50;;;;;;;25.88;47.42;100433.72;10253217;28;96788;-80
2023/07/24 14:17:09;;;;;;;5.00;1.85;;;;;;;26.24;45.66;100430.00;10252560;28;96913;-79
2023/07/24 14:22:12;;;;;;;3.50;1.75;;;;;;;26.28;46.12;100433.25;10252700;28;96770;-80
2023/07/24 14:27:15;;;;;;;2.67;1.57;;;;;;;26.02;46.20;100429.63;10253223;28;97597;-80
2023/07/24 14:32:20;;;;;;;2.95;1.52;;;;;;;25.93;45.52;100434.94;10252397;28;96964;-79
2023/07/24 14:37:24;;;;;;;4.07;1.70;;;;;;;25.98;45.63;100437.19;10252283;28;96764;-80
2023/07/24 14:42:27;;;;;;;3.50;1.57;;;;;;;25.80;45.89;100433.63;10253803;28;96903;-80
2023/07/24 14:47:33;;;;;;;3.58;1.58;;;;;;;25.99;45.67;100425.38;10254732;28;97126;-80
2023/07/24 14:52:38;;;;;;;2.60;1.60;;;;;;;25.70;45.91;100436.41;10258787;28;97586;-80
2023/07/24 14:57:42;;;;;;;2.30;1.33;;;;;;;25.88;46.01;100449.91;10258380;28;96597;-79
2023/07/24 15:02:49;;;;;;;3.05;1.20;;;;;;;25.97;45.78;100456.22;10258845;28;96816;-79
2023/07/24 15:07:52;;;;;;;3.42;1.40;;;;;;;26.19;45.66;100453.91;10258467;28;96665;-79
2023/07/24 15:13:14;;;;;;;5.35;1.38;;;;;;;26.70;45.33;100443.19;10251908;28;96644;-80
2023/07/24 15:18:36;;;;;;;4.43;1.77;;;;;;;26.45;44.96;100437.78;10256251;28;96692;-80
2023/07/24 15:23:39;;;;;;;3.22;1.52;;;;;;;26.21;45.46;100429.47;10258180;28;96827;-79
2023/07/24 15:28:42;;;;;;;2.90;1.40;;;;;;;26.14;45.95;100437.34;10258022;28;97050;-80
2023/07/24 15:34:05;;;;;;;2.75;1.45;;;;;;;25.95;46.50;100429.41;10252768;28;96766;-80
2023/07/24 15:39:08;;;;;;;2.25;1.40;;;;;;;25.91;46.96;100433.41;10257264;28;97433;-80
2023/07/24 15:44:11;;;;;;;3.22;1.50;;;;;;;26.24;45.76;100427.31;10256991;28;96772;-80
2023/07/24 15:49:33;;;;;;;3.72;1.60;;;;;;;26.07;46.61;100427.31;10254693;28;96727;-79
2023/07/24 15:54:54;;;;;;;5.28;1.60;;;;;;;25.78;47.13;100431.09;10254494;28;97195;-80
2023/07/24 15:59:58;;;;;;;3.45;1.60;;;;;;;25.29;47.86;100422.59;10256528;28;96927;-79
2023/07/24 16:05:22;;;;;;;2.90;1.42;;;;;;;25.35;48.37;100435.44;10250991;28;97242;-79
2023/07/24 16:10:43;;;;;;;3.50;1.55;;;;;;;25.47;48.17;100434.22;10252860;28;96566;-79
2023/07/24 16:15:46;;;;;;;2.40;1.67;;;;;;;25.64;47.76;100434.25;10256545;28;97058;-80
2023/07/24 16:21:09;;;;;;;2.10;1.30;;;;;;;25.58;47.85;100431.34;10255359;28;96741;-80
2023/07/24 16:26:12;;;;;;;3.22;1.63;;;;;;;25.51;48.37;100420.31;10257076;28;96793;-80
2023/07/24 16:31:33;;;;;;;3.17;1.27;;;;;;;25.30;48.55;100432.34;10249480;28;96734;-79
2023/07/24 16:36:40;;;;;;;2.35;1.40;;;;;;;25.24;48.54;100438.34;10255586;28;96706;-80
2023/07/24 16:41:43;;;;;;;2.03;1.25;;;;;;;25.05;49.01;100433.91;10254775;28;96759;-79
2023/07/24 16:46:46;;;;;;;2.67;1.27;;;;;;;25.29;48.88;100436.06;10255270;28;96919;-79
2023/07/24 16:51:51;;;;;;;2.47;1.00;;;;;;;25.43;48.75;100438.25;10255503;28;97749;-79
2023/07/24 16:56:55;;;;;;;1.58;1.02;;;;;;;25.27;48.79;100427.25;10260821;28;96731;-79
2023/07/24 17:01:58;;;;;;;1.53;0.90;;;;;;;25.11;49.17;100418.97;10295512;28;96812;-79
2023/07/24 17:07:03;;;;;;;1.87;0.93;;;;;;;24.98;49.57;100429.22;10295766;28;97110;-80
2023/07/24 17:12:07;;;;;;;1.52;1.10;;;;;;;24.96;49.70;100425.81;10294820;28;96870;-79
2023/07/24 17:17:11;;;;;;;1.65;0.75;;;;;;;25.04;49.38;100416.03;10289478;22;96975;-79
2023/07/24 17:22:16;;;;;;;1.93;0.90;;;;;;;24.90;48.56;100407.53;10254310;28;97220;-79
2023/07/24 17:27:19;;;;;;;2.28;1.00;;;;;;;24.98;49.54;100421.13;10254274;28;97545;-79
2023/07/24 17:33:01;;;;;;;2.67;0.98;;;;;;;25.09;49.37;100415.56;10264882;28;96841;-79
2023/07/24 17:38:06;;;;;;;2.33;1.20;;;;;;;25.19;48.71;100424.47;10254004;28;97420;-79
2023/07/24 17:43:09;;;;;;;1.98;1.00;;;;;;;25.24;48.59;100420.31;10254069;28;97728;-79
2023/07/24 17:48:12;;;;;;;2.67;1.00;;;;;;;25.11;49.15;100418.97;10259558;28;96910;-79
2023/07/24 17:53:17;;;;;;;1.00;0.77;;;;;;;25.17;49.36;100421.94;10213454;28;97586;-79
2023/07/24 17:58:20;;;;;;;2.33;1.40;;;;;;;25.25;48.98;100423.88;10213497;28;97843;-79
2023/07/24 18:03:24;;;;;;;1.70;1.00;;;;;;;25.23;49.27;100428.56;10212978;28;96785;-79
2023/07/24 18:08:29;;;;;;;1.70;0.90;;;;;;;25.27;48.95;100436.19;10249641;28;96637;-78
2023/07/24 18:13:32;;;;;;;1.73;0.82;;;;;;;25.14;49.42;100432.16;10252998;28;96827;-79
2023/07/24 18:18:35;;;;;;;1.57;0.80;;;;;;;25.06;49.63;100430.19;10252707;28;97605;-79
2023/07/24 18:23:40;;;;;;;1.40;0.63;;;;;;;24.82;50.15;100429.84;10258276;28;97235;-79
2023/07/24 18:28:43;;;;;;;2.22;0.90;;;;;;;24.76;49.99;100449.25;10259583;28;96872;-79
2023/07/24 18:33:47;;;;;;;1.50;0.73;;;;;;;24.71;50.27;100447.00;10259965;28;96948;-79
2023/07/24 18:38:51;;;;;;;1.60;0.90;;;;;;;24.49;50.84;100452.72;10264648;28;98253;-79
2023/07/24 18:43:55;;;;;;;1.98;0.90;;;;;;;24.09;51.52;100446.63;10300477;28;97965;-79
2023/07/24 18:48:58;;;;;;;1.07;0.73;;;;;;;23.92;51.80;100446.50;10299602;28;96747;-79
2023/07/24 18:54:03;;;;;;;1.93;0.70;;;;;;;23.86;52.14;100455.97;10299574;28;96717;-79
2023/07/24 18:59:06;;;;;;;1.27;0.80;;;;;;;23.89;52.33;100454.84;10299495;28;96671;-79
2023/07/24 19:04:10;;;;;;;1.80;0.80;;;;;;;23.73;52.84;100450.84;10299946;28;97561;-79
2023/07/24 19:09:14;;;;;;;2.77;0.73;;;;;;;23.72;53.12;100463.59;10299288;28;96735;-79
2023/07/24 19:14:35;;;;;;;1.17;0.70;;;;;;;23.53;53.73;100459.81;10275388;28;97883;-79
2023/07/24 19:19:39;;;;;;;1.30;0.70;;;;;;;23.40;53.72;100461.94;10258044;28;96813;-79
2023/07/24 19:24:43;;;;;;;2.03;0.80;;;;;;;23.34;53.89;100475.03;10258028;28;96756;-79
2023/07/24 19:29:47;;;;;;;1.75;0.75;;;;;;;23.34;54.11;100475.03;10258607;28;96606;-79
2023/07/24 19:34:50;;;;;;;1.20;0.53;;;;;;;23.27;54.19;100473.88;10257504;28;98122;-79
2023/07/24 19:39:55;;;;;;;2.90;1.15;;;;;;;23.11;54.46;100471.69;10257254;28;96808;-79
2023/07/24 19:44:59;;;;;;;0.60;0.50;;;;;;;23.13;54.36;100475.09;10257576;28;96903;-79
2023/07/24 19:50:04;;;;;;;1.70;0.80;;;;;;;22.91;55.01;100479.78;10258409;28;96828;-79
2023/07/24 19:55:11;;;;;;;1.25;0.85;;;;;;;22.86;55.44;100490.06;10257156;28;96736;-79
2023/07/24 20:00:32;;;;;;;2.58;0.70;;;;;;;22.76;55.77;100494.50;10250578;28;96689;-79
2023/07/24 20:05:35;;;;;;;2.75;0.80;;;;;;;22.67;55.83;100503.34;10256635;28;97699;-79
2023/07/24 20:10:40;;;;;;;1.85;0.90;;;;;;;22.62;56.04;100511.78;10256841;28;96589;-79
2023/07/24 20:16:01;;;;;;;1.05;0.80;;;;;;;22.57;56.42;100516.69;10254224;28;97805;-79
2023/07/24 20:21:05;;;;;;;0.83;0.63;;;;;;;22.47;56.94;100519.28;10256790;28;97536;-79
2023/07/24 20:26:09;;;;;;;1.02;0.80;;;;;;;22.48;56.68;100531.75;10255955;28;97338;-79
2023/07/24 20:31:31;;;;;;;1.98;0.80;;;;;;;22.34;57.36;100536.53;10255796;28;96756;-79
2023/07/24 20:36:36;;;;;;;2.05;0.77;;;;;;;22.41;57.58;100548.47;10255907;28;97346;-79
2023/07/24 20:41:41;;;;;;;1.85;0.88;;;;;;;22.39;57.69;100545.91;10257212;28;97006;-79
2023/07/24 20:46:44;;;;;;;0.70;0.63;;;;;;;22.34;58.13;100549.94;10254376;28;96939;-79
2023/07/24 20:51:49;;;;;;;1.75;0.80;;;;;;;22.18;58.78;100553.06;10255396;28;96718;-79
2023/07/24 20:56:55;;;;;;;1.08;0.80;;;;;;;22.06;59.09;100567.47;10254256;28;96705;-79
2023/07/24 21:01:58;;;;;;;1.30;0.85;;;;;;;22.07;59.23;100571.00;10255048;28;96841;-79
2023/07/24 21:07:02;;;;;;;1.42;0.90;;;;;;;21.99;59.35;100581.47;10255315;28;96790;-79
2023/07/24 21:12:08;;;;;;;1.35;0.90;;;;;;;22.05;59.26;100592.59;10255830;28;97563;-79
2023/07/24 21:17:11;;;;;;;1.20;0.80;;;;;;;21.99;59.41;100600.25;10254625;28;96848;-79
2023/07/24 21:22:14;;;;;;;1.27;0.67;;;;;;;21.96;59.46;100601.34;10254386;28;96704;-79
2023/07/24 21:27:36;;;;;;;1.35;0.95;;;;;;;22.01;59.59;100607.19;10213233;28;96910;-79
2023/07/24 21:32:40;;;;;;;1.23;0.80;;;;;;;21.96;60.04;100603.16;10252379;28;97230;-79
2023/07/24 21:37:44;;;;;;;1.50;0.70;;;;;;;21.87;60.36;100610.09;10254047;28;96744;-79
2023/07/24 21:43:07;;;;;;;1.70;0.80;;;;;;;21.78;60.62;100613.50;10251751;28;96689;-79
2023/07/24 21:48:11;;;;;;;1.73;0.93;;;;;;;21.58;61.40;100619.63;10253815;28;97326;-79
2023/07/24 21:53:15;;;;;;;1.83;0.70;;;;;;;21.62;61.30;100625.59;10253504;28;96836;-79
2023/07/24 21:58:20;;;;;;;1.48;1.00;;;;;;;21.64;60.90;100632.50;10259210;28;97654;-79
2023/07/24 22:03:23;;;;;;;1.65;0.82;;;;;;;21.53;61.62;100632.53;10261262;28;97865;-79
2023/07/24 22:08:27;;;;;;;1.98;0.90;;;;;;;21.41;62.28;100633.50;10261144;28;98041;-79
2023/07/24 22:13:31;;;;;;;1.25;0.90;;;;;;;21.24;62.53;100632.09;10260572;28;96796;-79
2023/07/24 22:18:35;;;;;;;1.25;0.80;;;;;;;21.10;62.90;100631.44;10260280;28;97003;-79
2023/07/24 22:23:38;;;;;;;1.20;0.77;;;;;;;21.05;63.24;100622.94;10261449;28;97818;-79
2023/07/24 22:28:42;;;;;;;1.38;0.75;;;;;;;21.00;63.28;100633.97;10259900;28;96723;-79
2023/07/24 22:33:45;;;;;;;1.27;0.90;;;;;;;20.94;63.75;100633.59;10259940;28;97014;-79
2023/07/24 22:38:49;;;;;;;1.90;0.98;;;;;;;20.68;64.55;100634.69;10259103;28;96674;-79
2023/07/24 22:44:10;;;;;;;3.28;1.25;;;;;;;20.64;65.14;100631.41;10259941;28;96607;-79
2023/07/24 22:49:14;;;;;;;1.33;0.95;;;;;;;20.54;65.30;100635.75;10259006;28;96800;-79
2023/07/24 22:54:17;;;;;;;1.35;0.95;;;;;;;20.54;65.58;100637.53;10268216;28;96976;-79
2023/07/24 22:59:23;;;;;;;1.52;1.02;;;;;;;20.46;65.80;100643.47;10299318;28;96675;-79
2023/07/24 23:04:27;;;;;;;2.10;1.10;;;;;;;20.42;65.87;100631.31;10299921;28;96805;-79
2023/07/24 23:09:30;;;;;;;1.85;1.30;;;;;;;20.37;65.99;100638.81;10298140;28;96697;-79
2023/07/24 23:14:35;;;;;;;2.27;1.20;;;;;;;20.42;65.60;100646.47;10298742;28;96732;-79
2023/07/24 23:19:56;;;;;;;2.47;1.10;;;;;;;20.30;66.24;100638.41;10297942;28;96741;-79
2023/07/24 23:24:59;;;;;;;2.17;1.60;;;;;;;20.27;66.08;100645.78;10277351;28;96825;-79
2023/07/24 23:30:05;;;;;;;2.63;1.30;;;;;;;20.19;66.19;100648.13;10280802;28;97818;-79
2023/07/24 23:35:26;;;;;;;3.33;1.20;;;;;;;20.08;65.84;100638.22;10291992;28;96694;-79